sensor_id;sensor_type;location;lat;lon;timestamp;temperature;humidity
16863;DHT22;52193;48.216;-1.698;2023-03-20T00:01:55;15.00;90.10
16863;DHT22;52193;48.216;-1.698;2023-03-20T00:04:23;15.00;90.10
16863;DHT22;52193;48.216;-1.698;2023-03-20T00:06:51;15.00;90.10
16863;DHT22;52193;48.216;-1.698;2023-03-20T00:09:18;15.00;90.10
16863;DHT22;52193;48.216;-1.698;2023-03-20T00:11:47;15.00;90.10
16863;DHT22;52193;48.216;-1.698;2023-03-20T00:14:16;15.00;90.20
16863;DHT22;52193;48.216;-1.698;2023-03-20T00:16:45;15.00;90.20
16863;DHT22;52193;48.216;-1.698;2023-03-20T00:19:14;15.00;90.30
16863;DHT22;52193;48.216;-1.698;2023-03-20T00:21:43;15.00;90.30
16863;DHT22;52193;48.216;-1.698;2023-03-20T00:24:11;15.00;90.40
16863;DHT22;52193;48.216;-1.698;2023-03-20T00:26:38;15.00;90.40
16863;DHT22;52193;48.216;-1.698;2023-03-20T00:29:06;15.10;90.40
16863;DHT22;52193;48.216;-1.698;2023-03-20T00:31:35;15.10;90.50
16863;DHT22;52193;48.216;-1.698;2023-03-20T00:34:04;15.10;90.50
16863;DHT22;52193;48.216;-1.698;2023-03-20T00:36:32;15.00;90.50
16863;DHT22;52193;48.216;-1.698;2023-03-20T00:39:00;15.00;90.50
16863;DHT22;52193;48.216;-1.698;2023-03-20T00:41:29;15.00;90.50
16863;DHT22;52193;48.216;-1.698;2023-03-20T00:43:59;15.10;90.60
16863;DHT22;52193;48.216;-1.698;2023-03-20T00:46:27;15.00;90.50
16863;DHT22;52193;48.216;-1.698;2023-03-20T00:48:54;15.00;90.50
16863;DHT22;52193;48.216;-1.698;2023-03-20T00:51:21;15.00;90.60
16863;DHT22;52193;48.216;-1.698;2023-03-20T00:53:48;15.00;90.60
16863;DHT22;52193;48.216;-1.698;2023-03-20T00:56:31;15.00;90.60
16863;DHT22;52193;48.216;-1.698;2023-03-20T00:58:59;14.90;90.60
16863;DHT22;52193;48.216;-1.698;2023-03-20T01:01:28;14.90;90.60
16863;DHT22;52193;48.216;-1.698;2023-03-20T01:03:55;14.90;90.60
16863;DHT22;52193;48.216;-1.698;2023-03-20T01:06:22;14.90;90.60
16863;DHT22;52193;48.216;-1.698;2023-03-20T01:08:49;14.90;90.60
16863;DHT22;52193;48.216;-1.698;2023-03-20T01:11:21;14.90;90.70
16863;DHT22;52193;48.216;-1.698;2023-03-20T01:13:50;14.90;90.70
16863;DHT22;52193;48.216;-1.698;2023-03-20T01:16:20;14.90;90.70
16863;DHT22;52193;48.216;-1.698;2023-03-20T01:18:47;14.90;90.70
16863;DHT22;52193;48.216;-1.698;2023-03-20T01:21:14;14.90;90.60
16863;DHT22;52193;48.216;-1.698;2023-03-20T01:23:41;14.90;90.60
16863;DHT22;52193;48.216;-1.698;2023-03-20T01:26:19;15.00;90.60
16863;DHT22;52193;48.216;-1.698;2023-03-20T01:28:47;14.90;90.70
16863;DHT22;52193;48.216;-1.698;2023-03-20T01:31:16;14.90;90.70
16863;DHT22;52193;48.216;-1.698;2023-03-20T01:33:44;14.90;90.80
16863;DHT22;52193;48.216;-1.698;2023-03-20T01:36:12;14.80;90.80
16863;DHT22;52193;48.216;-1.698;2023-03-20T01:38:40;14.90;91.00
16863;DHT22;52193;48.216;-1.698;2023-03-20T01:41:10;14.80;91.00
16863;DHT22;52193;48.216;-1.698;2023-03-20T01:43:38;14.80;91.00
16863;DHT22;52193;48.216;-1.698;2023-03-20T01:46:16;14.80;91.00
16863;DHT22;52193;48.216;-1.698;2023-03-20T01:49:04;14.80;91.10
16863;DHT22;52193;48.216;-1.698;2023-03-20T01:51:34;14.80;91.10
16863;DHT22;52193;48.216;-1.698;2023-03-20T01:54:06;14.80;91.20
16863;DHT22;52193;48.216;-1.698;2023-03-20T01:56:38;14.90;91.20
16863;DHT22;52193;48.216;-1.698;2023-03-20T01:59:11;14.90;91.30
16863;DHT22;52193;48.216;-1.698;2023-03-20T02:01:41;14.80;91.30
16863;DHT22;52193;48.216;-1.698;2023-03-20T02:04:08;14.80;91.30
16863;DHT22;52193;48.216;-1.698;2023-03-20T02:06:37;14.90;91.40
16863;DHT22;52193;48.216;-1.698;2023-03-20T02:09:05;14.80;91.40
16863;DHT22;52193;48.216;-1.698;2023-03-20T02:11:32;14.80;91.30
16863;DHT22;52193;48.216;-1.698;2023-03-20T02:14:00;14.80;91.40
16863;DHT22;52193;48.216;-1.698;2023-03-20T02:16:27;14.80;91.40
16863;DHT22;52193;48.216;-1.698;2023-03-20T02:18:56;14.80;91.30
16863;DHT22;52193;48.216;-1.698;2023-03-20T02:21:52;14.70;91.40
16863;DHT22;52193;48.216;-1.698;2023-03-20T02:25:00;14.70;91.40
16863;DHT22;52193;48.216;-1.698;2023-03-20T02:27:33;14.80;91.40
16863;DHT22;52193;48.216;-1.698;2023-03-20T02:30:37;14.80;91.50
16863;DHT22;52193;48.216;-1.698;2023-03-20T02:33:45;14.70;91.40
16863;DHT22;52193;48.216;-1.698;2023-03-20T02:36:54;14.70;91.50
16863;DHT22;52193;48.216;-1.698;2023-03-20T02:39:47;14.70;91.60
16863;DHT22;52193;48.216;-1.698;2023-03-20T02:42:22;14.60;91.60
16863;DHT22;52193;48.216;-1.698;2023-03-20T02:44:56;14.60;91.60
16863;DHT22;52193;48.216;-1.698;2023-03-20T02:47:27;14.60;91.60
16863;DHT22;52193;48.216;-1.698;2023-03-20T02:50:02;14.60;91.70
16863;DHT22;52193;48.216;-1.698;2023-03-20T02:52:34;14.60;91.70
16863;DHT22;52193;48.216;-1.698;2023-03-20T02:55:13;14.60;91.80
16863;DHT22;52193;48.216;-1.698;2023-03-20T02:57:48;14.50;91.80
16863;DHT22;52193;48.216;-1.698;2023-03-20T03:00:25;14.50;91.80
16863;DHT22;52193;48.216;-1.698;2023-03-20T03:02:58;14.50;91.80
16863;DHT22;52193;48.216;-1.698;2023-03-20T03:05:33;14.50;91.90
16863;DHT22;52193;48.216;-1.698;2023-03-20T03:08:01;14.40;91.90
16863;DHT22;52193;48.216;-1.698;2023-03-20T03:10:33;14.40;91.90
16863;DHT22;52193;48.216;-1.698;2023-03-20T03:13:04;14.40;91.90
16863;DHT22;52193;48.216;-1.698;2023-03-20T03:15:34;14.40;92.00
16863;DHT22;52193;48.216;-1.698;2023-03-20T03:18:04;14.40;92.00
16863;DHT22;52193;48.216;-1.698;2023-03-20T03:20:36;14.40;92.00
16863;DHT22;52193;48.216;-1.698;2023-03-20T03:23:05;14.40;92.00
16863;DHT22;52193;48.216;-1.698;2023-03-20T03:25:36;14.40;92.10
16863;DHT22;52193;48.216;-1.698;2023-03-20T03:28:07;14.40;92.00
16863;DHT22;52193;48.216;-1.698;2023-03-20T03:30:41;14.30;92.10
16863;DHT22;52193;48.216;-1.698;2023-03-20T03:33:14;14.30;92.10
16863;DHT22;52193;48.216;-1.698;2023-03-20T03:35:45;14.30;92.10
16863;DHT22;52193;48.216;-1.698;2023-03-20T03:38:23;14.30;92.20
16863;DHT22;52193;48.216;-1.698;2023-03-20T03:41:02;14.40;92.20
16863;DHT22;52193;48.216;-1.698;2023-03-20T03:43:34;14.40;92.30
16863;DHT22;52193;48.216;-1.698;2023-03-20T03:46:07;14.30;92.20
16863;DHT22;52193;48.216;-1.698;2023-03-20T03:48:38;14.30;92.30
16863;DHT22;52193;48.216;-1.698;2023-03-20T03:51:08;14.40;92.20
16863;DHT22;52193;48.216;-1.698;2023-03-20T03:53:40;14.30;92.20
16863;DHT22;52193;48.216;-1.698;2023-03-20T03:56:11;14.40;92.60
16863;DHT22;52193;48.216;-1.698;2023-03-20T03:58:41;14.30;92.70
16863;DHT22;52193;48.216;-1.698;2023-03-20T04:01:10;14.30;92.80
16863;DHT22;52193;48.216;-1.698;2023-03-20T04:03:40;14.30;93.00
16863;DHT22;52193;48.216;-1.698;2023-03-20T04:06:10;14.30;93.00
16863;DHT22;52193;48.216;-1.698;2023-03-20T04:08:39;14.40;93.20
16863;DHT22;52193;48.216;-1.698;2023-03-20T04:11:07;14.50;93.10
16863;DHT22;52193;48.216;-1.698;2023-03-20T04:13:36;14.50;92.90
16863;DHT22;52193;48.216;-1.698;2023-03-20T04:16:03;14.60;92.90
16863;DHT22;52193;48.216;-1.698;2023-03-20T04:18:30;14.60;92.90
16863;DHT22;52193;48.216;-1.698;2023-03-20T04:20:57;14.50;92.80
16863;DHT22;52193;48.216;-1.698;2023-03-20T04:23:23;14.60;92.70
16863;DHT22;52193;48.216;-1.698;2023-03-20T04:25:50;14.60;92.70
16863;DHT22;52193;48.216;-1.698;2023-03-20T04:28:17;14.70;92.80
16863;DHT22;52193;48.216;-1.698;2023-03-20T04:30:51;14.70;92.80
16863;DHT22;52193;48.216;-1.698;2023-03-20T04:33:18;14.60;92.70
16863;DHT22;52193;48.216;-1.698;2023-03-20T04:35:45;14.70;92.80
16863;DHT22;52193;48.216;-1.698;2023-03-20T04:38:12;14.70;92.70
16863;DHT22;52193;48.216;-1.698;2023-03-20T04:40:39;14.60;92.60
16863;DHT22;52193;48.216;-1.698;2023-03-20T04:43:06;14.60;92.80
16863;DHT22;52193;48.216;-1.698;2023-03-20T04:45:33;14.50;92.60
16863;DHT22;52193;48.216;-1.698;2023-03-20T04:48:01;14.50;92.80
16863;DHT22;52193;48.216;-1.698;2023-03-20T04:50:28;14.50;92.80
16863;DHT22;52193;48.216;-1.698;2023-03-20T04:52:55;14.50;92.90
16863;DHT22;52193;48.216;-1.698;2023-03-20T04:55:22;14.50;93.10
16863;DHT22;52193;48.216;-1.698;2023-03-20T04:57:49;14.60;93.10
16863;DHT22;52193;48.216;-1.698;2023-03-20T05:00:17;14.50;93.10
16863;DHT22;52193;48.216;-1.698;2023-03-20T05:02:44;14.50;93.20
16863;DHT22;52193;48.216;-1.698;2023-03-20T05:05:12;14.50;93.20
16863;DHT22;52193;48.216;-1.698;2023-03-20T05:07:39;14.40;93.30
16863;DHT22;52193;48.216;-1.698;2023-03-20T05:10:07;14.40;93.40
16863;DHT22;52193;48.216;-1.698;2023-03-20T05:12:35;14.40;93.40
16863;DHT22;52193;48.216;-1.698;2023-03-20T05:15:02;14.40;93.60
16863;DHT22;52193;48.216;-1.698;2023-03-20T05:17:28;14.30;93.50
16863;DHT22;52193;48.216;-1.698;2023-03-20T05:19:55;14.30;93.60
16863;DHT22;52193;48.216;-1.698;2023-03-20T05:22:24;14.40;93.70
16863;DHT22;52193;48.216;-1.698;2023-03-20T05:24:51;14.40;93.70
16863;DHT22;52193;48.216;-1.698;2023-03-20T05:27:18;14.40;93.70
16863;DHT22;52193;48.216;-1.698;2023-03-20T05:29:45;14.40;93.70
16863;DHT22;52193;48.216;-1.698;2023-03-20T05:32:12;14.40;93.70
16863;DHT22;52193;48.216;-1.698;2023-03-20T05:34:39;14.40;93.70
16863;DHT22;52193;48.216;-1.698;2023-03-20T05:37:05;14.40;93.80
16863;DHT22;52193;48.216;-1.698;2023-03-20T05:39:34;14.40;93.70
16863;DHT22;52193;48.216;-1.698;2023-03-20T05:42:01;14.40;93.80
16863;DHT22;52193;48.216;-1.698;2023-03-20T05:44:27;14.30;93.90
16863;DHT22;52193;48.216;-1.698;2023-03-20T05:46:55;14.30;94.00
16863;DHT22;52193;48.216;-1.698;2023-03-20T05:49:22;14.30;94.10
16863;DHT22;52193;48.216;-1.698;2023-03-20T05:51:49;14.20;94.20
16863;DHT22;52193;48.216;-1.698;2023-03-20T05:54:16;14.20;94.20
16863;DHT22;52193;48.216;-1.698;2023-03-20T05:56:44;14.10;94.20
16863;DHT22;52193;48.216;-1.698;2023-03-20T05:59:11;14.10;94.40
16863;DHT22;52193;48.216;-1.698;2023-03-20T06:01:38;14.20;94.40
16863;DHT22;52193;48.216;-1.698;2023-03-20T06:04:05;14.10;94.50
16863;DHT22;52193;48.216;-1.698;2023-03-20T06:06:33;14.10;94.50
16863;DHT22;52193;48.216;-1.698;2023-03-20T06:09:02;14.00;94.60
16863;DHT22;52193;48.216;-1.698;2023-03-20T06:11:29;14.00;94.70
16863;DHT22;52193;48.216;-1.698;2023-03-20T06:13:58;14.00;94.70
16863;DHT22;52193;48.216;-1.698;2023-03-20T06:16:26;14.00;94.70
16863;DHT22;52193;48.216;-1.698;2023-03-20T06:18:53;14.00;94.60
16863;DHT22;52193;48.216;-1.698;2023-03-20T06:21:20;13.80;94.70
16863;DHT22;52193;48.216;-1.698;2023-03-20T06:23:46;13.80;94.70
16863;DHT22;52193;48.216;-1.698;2023-03-20T06:26:13;13.80;94.80
16863;DHT22;52193;48.216;-1.698;2023-03-20T06:28:40;13.80;94.80
16863;DHT22;52193;48.216;-1.698;2023-03-20T06:31:08;13.90;94.90
16863;DHT22;52193;48.216;-1.698;2023-03-20T06:33:36;13.90;94.90
16863;DHT22;52193;48.216;-1.698;2023-03-20T06:36:04;13.90;94.90
16863;DHT22;52193;48.216;-1.698;2023-03-20T06:38:31;14.00;95.00
16863;DHT22;52193;48.216;-1.698;2023-03-20T06:40:58;14.00;94.90
16863;DHT22;52193;48.216;-1.698;2023-03-20T06:43:25;13.90;94.80
16863;DHT22;52193;48.216;-1.698;2023-03-20T06:45:52;13.90;94.80
16863;DHT22;52193;48.216;-1.698;2023-03-20T06:48:21;13.90;94.90
16863;DHT22;52193;48.216;-1.698;2023-03-20T06:50:48;14.00;94.90
16863;DHT22;52193;48.216;-1.698;2023-03-20T06:53:15;14.00;94.90
16863;DHT22;52193;48.216;-1.698;2023-03-20T06:55:45;14.00;94.90
16863;DHT22;52193;48.216;-1.698;2023-03-20T06:58:12;14.00;94.90
16863;DHT22;52193;48.216;-1.698;2023-03-20T07:00:39;14.00;94.90
16863;DHT22;52193;48.216;-1.698;2023-03-20T07:03:06;14.10;95.00
16863;DHT22;52193;48.216;-1.698;2023-03-20T07:05:35;14.00;94.90
16863;DHT22;52193;48.216;-1.698;2023-03-20T07:08:03;14.00;94.80
16863;DHT22;52193;48.216;-1.698;2023-03-20T07:10:30;14.00;94.70
16863;DHT22;52193;48.216;-1.698;2023-03-20T07:12:57;14.10;94.60
16863;DHT22;52193;48.216;-1.698;2023-03-20T07:15:24;14.00;94.50
16863;DHT22;52193;48.216;-1.698;2023-03-20T07:17:52;14.00;94.50
16863;DHT22;52193;48.216;-1.698;2023-03-20T07:20:19;14.00;94.50
16863;DHT22;52193;48.216;-1.698;2023-03-20T07:22:47;14.00;94.50
16863;DHT22;52193;48.216;-1.698;2023-03-20T07:25:14;14.10;94.60
16863;DHT22;52193;48.216;-1.698;2023-03-20T07:27:41;14.10;94.60
16863;DHT22;52193;48.216;-1.698;2023-03-20T07:30:15;14.10;94.60
16863;DHT22;52193;48.216;-1.698;2023-03-20T07:32:42;14.10;94.70
16863;DHT22;52193;48.216;-1.698;2023-03-20T07:35:09;14.10;94.60
16863;DHT22;52193;48.216;-1.698;2023-03-20T07:37:36;14.10;94.80
16863;DHT22;52193;48.216;-1.698;2023-03-20T07:40:05;14.00;94.80
16863;DHT22;52193;48.216;-1.698;2023-03-20T07:42:32;14.10;95.00
16863;DHT22;52193;48.216;-1.698;2023-03-20T07:44:59;14.00;94.90
16863;DHT22;52193;48.216;-1.698;2023-03-20T07:47:26;14.00;95.10
16863;DHT22;52193;48.216;-1.698;2023-03-20T07:49:53;13.90;95.30
16863;DHT22;52193;48.216;-1.698;2023-03-20T07:52:20;14.00;95.40
16863;DHT22;52193;48.216;-1.698;2023-03-20T07:54:47;14.00;95.50
16863;DHT22;52193;48.216;-1.698;2023-03-20T07:57:15;14.00;95.60
16863;DHT22;52193;48.216;-1.698;2023-03-20T07:59:42;14.00;95.70
16863;DHT22;52193;48.216;-1.698;2023-03-20T08:02:13;14.00;95.80
16863;DHT22;52193;48.216;-1.698;2023-03-20T08:04:41;14.00;95.90
16863;DHT22;52193;48.216;-1.698;2023-03-20T08:07:08;14.00;95.90
16863;DHT22;52193;48.216;-1.698;2023-03-20T08:09:35;14.10;96.00
16863;DHT22;52193;48.216;-1.698;2023-03-20T08:12:02;14.20;96.10
16863;DHT22;52193;48.216;-1.698;2023-03-20T08:14:30;14.30;96.20
16863;DHT22;52193;48.216;-1.698;2023-03-20T08:16:57;14.40;96.20
16863;DHT22;52193;48.216;-1.698;2023-03-20T08:19:24;14.50;96.30
16863;DHT22;52193;48.216;-1.698;2023-03-20T08:21:52;14.50;96.30
16863;DHT22;52193;48.216;-1.698;2023-03-20T08:24:19;14.40;96.50
16863;DHT22;52193;48.216;-1.698;2023-03-20T08:26:47;14.50;96.60
16863;DHT22;52193;48.216;-1.698;2023-03-20T08:29:14;14.50;96.50
16863;DHT22;52193;48.216;-1.698;2023-03-20T08:31:45;14.40;96.70
16863;DHT22;52193;48.216;-1.698;2023-03-20T08:34:12;14.50;96.80
16863;DHT22;52193;48.216;-1.698;2023-03-20T08:36:39;14.60;96.90
16863;DHT22;52193;48.216;-1.698;2023-03-20T08:39:07;14.70;96.90
16863;DHT22;52193;48.216;-1.698;2023-03-20T08:41:35;14.80;96.90
16863;DHT22;52193;48.216;-1.698;2023-03-20T08:44:03;14.70;97.00
16863;DHT22;52193;48.216;-1.698;2023-03-20T08:46:30;14.70;97.10
16863;DHT22;52193;48.216;-1.698;2023-03-20T08:48:59;14.70;97.20
16863;DHT22;52193;48.216;-1.698;2023-03-20T08:51:26;14.70;97.40
16863;DHT22;52193;48.216;-1.698;2023-03-20T08:53:53;14.80;97.70
16863;DHT22;52193;48.216;-1.698;2023-03-20T08:56:20;14.90;97.50
16863;DHT22;52193;48.216;-1.698;2023-03-20T08:58:47;15.00;97.50
16863;DHT22;52193;48.216;-1.698;2023-03-20T09:01:14;15.00;97.60
16863;DHT22;52193;48.216;-1.698;2023-03-20T09:03:41;15.20;97.80
16863;DHT22;52193;48.216;-1.698;2023-03-20T09:06:11;15.40;97.70
16863;DHT22;52193;48.216;-1.698;2023-03-20T09:08:38;15.50;97.70
16863;DHT22;52193;48.216;-1.698;2023-03-20T09:11:05;15.60;97.70
16863;DHT22;52193;48.216;-1.698;2023-03-20T09:13:33;15.60;97.60
16863;DHT22;52193;48.216;-1.698;2023-03-20T09:16:00;15.50;97.70
16863;DHT22;52193;48.216;-1.698;2023-03-20T09:18:28;15.50;97.80
16863;DHT22;52193;48.216;-1.698;2023-03-20T09:20:55;15.60;97.80
16863;DHT22;52193;48.216;-1.698;2023-03-20T09:23:23;15.60;97.90
16863;DHT22;52193;48.216;-1.698;2023-03-20T09:25:50;15.60;98.20
16863;DHT22;52193;48.216;-1.698;2023-03-20T09:28:17;15.80;97.90
16863;DHT22;52193;48.216;-1.698;2023-03-20T09:30:44;15.80;97.90
16863;DHT22;52193;48.216;-1.698;2023-03-20T09:33:11;15.80;98.00
16863;DHT22;52193;48.216;-1.698;2023-03-20T09:35:40;16.00;98.00
16863;DHT22;52193;48.216;-1.698;2023-03-20T09:38:06;16.10;97.80
16863;DHT22;52193;48.216;-1.698;2023-03-20T09:40:48;16.10;97.90
16863;DHT22;52193;48.216;-1.698;2023-03-20T09:43:23;16.10;97.80
16863;DHT22;52193;48.216;-1.698;2023-03-20T09:45:58;16.10;97.80
16863;DHT22;52193;48.216;-1.698;2023-03-20T09:48:33;16.10;97.80
16863;DHT22;52193;48.216;-1.698;2023-03-20T09:51:06;16.00;97.70
16863;DHT22;52193;48.216;-1.698;2023-03-20T09:53:39;16.00;97.70
16863;DHT22;52193;48.216;-1.698;2023-03-20T09:56:14;16.10;97.70
16863;DHT22;52193;48.216;-1.698;2023-03-20T09:58:45;16.10;97.50
16863;DHT22;52193;48.216;-1.698;2023-03-20T10:01:16;16.20;97.50
16863;DHT22;52193;48.216;-1.698;2023-03-20T10:03:50;16.30;97.50
16863;DHT22;52193;48.216;-1.698;2023-03-20T10:06:18;16.30;97.40
16863;DHT22;52193;48.216;-1.698;2023-03-20T10:08:46;16.30;97.30
16863;DHT22;52193;48.216;-1.698;2023-03-20T10:11:30;16.40;97.40
16863;DHT22;52193;48.216;-1.698;2023-03-20T10:14:08;16.40;97.30
16863;DHT22;52193;48.216;-1.698;2023-03-20T10:16:47;16.50;97.30
16863;DHT22;52193;48.216;-1.698;2023-03-20T10:19:20;16.70;97.20
16863;DHT22;52193;48.216;-1.698;2023-03-20T10:21:52;16.80;97.00
16863;DHT22;52193;48.216;-1.698;2023-03-20T10:24:27;16.80;97.00
16863;DHT22;52193;48.216;-1.698;2023-03-20T10:27:01;16.90;97.00
16863;DHT22;52193;48.216;-1.698;2023-03-20T10:29:40;16.90;97.00
16863;DHT22;52193;48.216;-1.698;2023-03-20T10:32:13;17.10;97.00
16863;DHT22;52193;48.216;-1.698;2023-03-20T10:34:55;17.30;96.90
16863;DHT22;52193;48.216;-1.698;2023-03-20T10:37:35;17.30;96.70
16863;DHT22;52193;48.216;-1.698;2023-03-20T10:43:04;17.40;96.60
16863;DHT22;52193;48.216;-1.698;2023-03-20T10:45:38;17.40;96.40
16863;DHT22;52193;48.216;-1.698;2023-03-20T10:48:14;17.40;96.30
16863;DHT22;52193;48.216;-1.698;2023-03-20T10:50:45;17.40;96.20
16863;DHT22;52193;48.216;-1.698;2023-03-20T10:53:22;17.40;96.20
16863;DHT22;52193;48.216;-1.698;2023-03-20T10:55:53;17.40;96.30
16863;DHT22;52193;48.216;-1.698;2023-03-20T10:58:27;17.40;96.20
16863;DHT22;52193;48.216;-1.698;2023-03-20T11:00:55;17.30;96.10
16863;DHT22;52193;48.216;-1.698;2023-03-20T11:03:25;17.40;96.20
16863;DHT22;52193;48.216;-1.698;2023-03-20T11:05:54;17.30;96.20
16863;DHT22;52193;48.216;-1.698;2023-03-20T11:08:25;17.30;96.20
16863;DHT22;52193;48.216;-1.698;2023-03-20T11:10:58;17.40;96.10
16863;DHT22;52193;48.216;-1.698;2023-03-20T11:13:30;17.40;95.80
16863;DHT22;52193;48.216;-1.698;2023-03-20T11:16:10;17.40;95.70
16863;DHT22;52193;48.216;-1.698;2023-03-20T11:18:40;17.30;95.50
16863;DHT22;52193;48.216;-1.698;2023-03-20T11:21:17;17.40;95.60
16863;DHT22;52193;48.216;-1.698;2023-03-20T11:23:45;17.60;95.50
16863;DHT22;52193;48.216;-1.698;2023-03-20T11:26:13;17.60;95.40
16863;DHT22;52193;48.216;-1.698;2023-03-20T11:28:47;17.70;95.40
16863;DHT22;52193;48.216;-1.698;2023-03-20T11:31:17;17.60;95.30
16863;DHT22;52193;48.216;-1.698;2023-03-20T11:33:50;17.70;95.30
16863;DHT22;52193;48.216;-1.698;2023-03-20T11:36:24;17.90;95.30
16863;DHT22;52193;48.216;-1.698;2023-03-20T11:38:52;18.20;95.20
16863;DHT22;52193;48.216;-1.698;2023-03-20T11:41:24;18.10;94.90
16863;DHT22;52193;48.216;-1.698;2023-03-20T11:43:53;18.30;94.90
16863;DHT22;52193;48.216;-1.698;2023-03-20T11:46:21;18.40;94.60
16863;DHT22;52193;48.216;-1.698;2023-03-20T11:49:05;18.30;94.50
16863;DHT22;52193;48.216;-1.698;2023-03-20T11:51:33;18.20;94.40
16863;DHT22;52193;48.216;-1.698;2023-03-20T11:54:02;18.30;94.50
16863;DHT22;52193;48.216;-1.698;2023-03-20T11:56:32;18.30;94.60
16863;DHT22;52193;48.216;-1.698;2023-03-20T11:59:10;18.40;94.60
16863;DHT22;52193;48.216;-1.698;2023-03-20T12:01:40;18.50;94.60
16863;DHT22;52193;48.216;-1.698;2023-03-20T12:04:12;18.60;94.40
16863;DHT22;52193;48.216;-1.698;2023-03-20T12:06:48;18.70;94.50
16863;DHT22;52193;48.216;-1.698;2023-03-20T12:09:31;18.80;94.30
16863;DHT22;52193;48.216;-1.698;2023-03-20T12:12:01;18.90;94.10
16863;DHT22;52193;48.216;-1.698;2023-03-20T12:14:37;19.00;94.00
16863;DHT22;52193;48.216;-1.698;2023-03-20T12:17:30;19.10;93.80
16863;DHT22;52193;48.216;-1.698;2023-03-20T12:20:04;19.10;93.70
16863;DHT22;52193;48.216;-1.698;2023-03-20T12:22:36;19.20;93.60
16863;DHT22;52193;48.216;-1.698;2023-03-20T12:25:13;19.30;93.60
16863;DHT22;52193;48.216;-1.698;2023-03-20T12:27:46;19.20;93.40
16863;DHT22;52193;48.216;-1.698;2023-03-20T12:30:21;19.20;93.50
16863;DHT22;52193;48.216;-1.698;2023-03-20T12:32:56;19.30;93.50
16863;DHT22;52193;48.216;-1.698;2023-03-20T12:35:26;19.40;93.40
16863;DHT22;52193;48.216;-1.698;2023-03-20T12:37:53;19.50;93.70
16863;DHT22;52193;48.216;-1.698;2023-03-20T12:40:25;19.80;93.30
16863;DHT22;52193;48.216;-1.698;2023-03-20T12:43:02;19.80;93.20
16863;DHT22;52193;48.216;-1.698;2023-03-20T12:45:33;19.90;92.80
16863;DHT22;52193;48.216;-1.698;2023-03-20T12:48:31;19.90;92.70
16863;DHT22;52193;48.216;-1.698;2023-03-20T12:51:05;19.90;92.50
16863;DHT22;52193;48.216;-1.698;2023-03-20T12:53:41;20.00;92.40
16863;DHT22;52193;48.216;-1.698;2023-03-20T12:56:26;20.10;92.30
16863;DHT22;52193;48.216;-1.698;2023-03-20T12:58:59;20.20;92.50
16863;DHT22;52193;48.216;-1.698;2023-03-20T13:01:36;20.30;92.40
16863;DHT22;52193;48.216;-1.698;2023-03-20T13:04:31;20.30;92.30
16863;DHT22;52193;48.216;-1.698;2023-03-20T13:07:09;20.20;92.20
16863;DHT22;52193;48.216;-1.698;2023-03-20T13:10:00;20.20;92.20
16863;DHT22;52193;48.216;-1.698;2023-03-20T13:12:36;20.20;92.20
16863;DHT22;52193;48.216;-1.698;2023-03-20T13:15:21;20.40;92.10
16863;DHT22;52193;48.216;-1.698;2023-03-20T13:17:57;20.60;92.00
16863;DHT22;52193;48.216;-1.698;2023-03-20T13:20:30;20.70;91.80
16863;DHT22;52193;48.216;-1.698;2023-03-20T13:23:09;20.80;91.70
16863;DHT22;52193;48.216;-1.698;2023-03-20T13:25:51;20.90;91.80
16863;DHT22;52193;48.216;-1.698;2023-03-20T13:28:23;20.70;91.50
16863;DHT22;52193;48.216;-1.698;2023-03-20T13:30:58;20.50;91.40
16863;DHT22;52193;48.216;-1.698;2023-03-20T13:33:38;20.30;91.40
16863;DHT22;52193;48.216;-1.698;2023-03-20T13:36:15;20.20;91.50
16863;DHT22;52193;48.216;-1.698;2023-03-20T13:38:47;20.00;91.50
16863;DHT22;52193;48.216;-1.698;2023-03-20T13:41:16;19.80;91.40
16863;DHT22;52193;48.216;-1.698;2023-03-20T13:43:47;19.70;91.50
16863;DHT22;52193;48.216;-1.698;2023-03-20T13:46:21;19.80;91.60
16863;DHT22;52193;48.216;-1.698;2023-03-20T13:48:52;20.00;91.60
16863;DHT22;52193;48.216;-1.698;2023-03-20T13:51:25;20.20;91.60
16863;DHT22;52193;48.216;-1.698;2023-03-20T13:54:02;20.40;91.50
16863;DHT22;52193;48.216;-1.698;2023-03-20T13:56:43;20.20;91.30
16863;DHT22;52193;48.216;-1.698;2023-03-20T14:02:24;19.80;91.20
16863;DHT22;52193;48.216;-1.698;2023-03-20T14:05:00;19.70;91.40
16863;DHT22;52193;48.216;-1.698;2023-03-20T14:07:30;19.60;91.60
16863;DHT22;52193;48.216;-1.698;2023-03-20T14:10:36;19.40;91.90
16863;DHT22;52193;48.216;-1.698;2023-03-20T14:13:13;19.30;92.20
16863;DHT22;52193;48.216;-1.698;2023-03-20T14:15:48;19.20;92.20
16863;DHT22;52193;48.216;-1.698;2023-03-20T14:18:17;19.30;92.40
16863;DHT22;52193;48.216;-1.698;2023-03-20T14:20:53;19.20;92.30
16863;DHT22;52193;48.216;-1.698;2023-03-20T14:23:31;19.20;92.40
16863;DHT22;52193;48.216;-1.698;2023-03-20T14:26:03;19.20;92.40
16863;DHT22;52193;48.216;-1.698;2023-03-20T14:28:43;19.10;92.50
16863;DHT22;52193;48.216;-1.698;2023-03-20T14:31:12;19.20;92.50
16863;DHT22;52193;48.216;-1.698;2023-03-20T14:33:53;19.00;92.60
16863;DHT22;52193;48.216;-1.698;2023-03-20T14:36:30;19.10;92.70
16863;DHT22;52193;48.216;-1.698;2023-03-20T14:39:18;18.90;92.50
16863;DHT22;52193;48.216;-1.698;2023-03-20T14:41:57;18.80;92.50
16863;DHT22;52193;48.216;-1.698;2023-03-20T14:44:34;18.70;92.50
16863;DHT22;52193;48.216;-1.698;2023-03-20T14:47:14;18.70;92.50
16863;DHT22;52193;48.216;-1.698;2023-03-20T14:49:50;18.60;92.60
16863;DHT22;52193;48.216;-1.698;2023-03-20T14:52:40;18.60;92.70
16863;DHT22;52193;48.216;-1.698;2023-03-20T14:55:30;18.60;92.80
16863;DHT22;52193;48.216;-1.698;2023-03-20T14:58:04;18.60;92.90
16863;DHT22;52193;48.216;-1.698;2023-03-20T15:00:44;18.60;92.90
16863;DHT22;52193;48.216;-1.698;2023-03-20T15:03:15;18.40;92.80
16863;DHT22;52193;48.216;-1.698;2023-03-20T15:05:44;18.40;92.90
16863;DHT22;52193;48.216;-1.698;2023-03-20T15:08:19;18.30;92.90
16863;DHT22;52193;48.216;-1.698;2023-03-20T15:10:50;18.30;93.00
16863;DHT22;52193;48.216;-1.698;2023-03-20T15:13:17;18.30;93.00
16863;DHT22;52193;48.216;-1.698;2023-03-20T15:15:52;18.30;93.50
16863;DHT22;52193;48.216;-1.698;2023-03-20T15:18:21;18.30;93.20
16863;DHT22;52193;48.216;-1.698;2023-03-20T15:20:48;18.30;93.20
16863;DHT22;52193;48.216;-1.698;2023-03-20T15:23:16;18.30;93.20
16863;DHT22;52193;48.216;-1.698;2023-03-20T15:25:44;18.40;93.20
16863;DHT22;52193;48.216;-1.698;2023-03-20T15:28:13;18.40;93.10
16863;DHT22;52193;48.216;-1.698;2023-03-20T15:30:40;18.40;93.00
16863;DHT22;52193;48.216;-1.698;2023-03-20T15:33:15;18.40;93.00
16863;DHT22;52193;48.216;-1.698;2023-03-20T15:35:42;18.30;93.10
16863;DHT22;52193;48.216;-1.698;2023-03-20T15:38:12;18.40;93.20
16863;DHT22;52193;48.216;-1.698;2023-03-20T15:40:41;18.40;93.20
16863;DHT22;52193;48.216;-1.698;2023-03-20T15:43:21;18.40;93.10
16863;DHT22;52193;48.216;-1.698;2023-03-20T15:45:49;18.40;93.00
16863;DHT22;52193;48.216;-1.698;2023-03-20T15:48:21;18.40;93.00